Time;durP1;ratioP1;P1;durP2;ratioP2;P2;SDS_P1;SDS_P2;PMS_P1;PMS_P2;Temp;Humidity;BMP_temperature;BMP_pressure;BME280_temperature;BME280_humidity;BME280_pressure;Samples;Min_cycle;Max_cycle;Signal;HPM_P1;HPM_P2
2023/08/27 00:01:41;;;;;;;4.82;3.17;;;16.10;99.90;;;;;;5001453;28;20038;-31
2023/08/27 00:04:06;;;;;;;3.15;2.85;;;16.10;99.90;;;;;;4998366;28;20392;-34
2023/08/27 00:06:32;;;;;;;4.75;3.58;;;16.00;99.90;;;;;;4998856;28;20418;-34
2023/08/27 00:08:57;;;;;;;3.33;3.03;;;16.10;99.90;;;;;;4999465;28;20121;-33
2023/08/27 00:11:23;;;;;;;3.75;3.33;;;16.10;99.90;;;;;;5000995;28;20029;-41
2023/08/27 00:13:48;;;;;;;4.50;3.30;;;16.10;99.90;;;;;;5002714;28;20068;-39
2023/08/27 00:16:14;;;;;;;4.05;3.22;;;16.20;99.90;;;;;;5001917;28;20087;-38
2023/08/27 00:18:40;;;;;;;3.95;3.13;;;16.10;99.90;;;;;;4999601;28;20044;-41
2023/08/27 00:21:06;;;;;;;3.20;2.58;;;16.20;99.90;;;;;;4994919;28;20041;-40
2023/08/27 00:23:31;;;;;;;3.08;2.78;;;16.20;99.90;;;;;;5001629;28;20514;-41
2023/08/27 00:25:57;;;;;;;5.10;3.20;;;16.10;99.90;;;;;;5001820;28;20030;-40
2023/08/27 00:28:23;;;;;;;2.90;2.65;;;16.10;99.90;;;;;;4995085;28;20037;-36
2023/08/27 00:30:48;;;;;;;4.63;3.63;;;16.20;99.90;;;;;;5001041;28;20033;-40
2023/08/27 00:33:14;;;;;;;5.75;3.50;;;16.20;99.90;;;;;;4997571;28;20030;-39
2023/08/27 00:35:42;;;;;;;5.05;3.35;;;16.20;99.90;;;;;;4998764;28;20423;-40
2023/08/27 00:38:07;;;;;;;6.65;3.55;;;16.20;99.90;;;;;;5000266;28;20041;-42
2023/08/27 00:40:33;;;;;;;4.70;3.72;;;16.20;99.90;;;;;;5005067;28;20113;-36
2023/08/27 00:42:59;;;;;;;5.78;3.53;;;16.20;99.90;;;;;;4998790;28;20049;-39
2023/08/27 00:45:25;;;;;;;4.60;3.53;;;16.20;99.90;;;;;;5000962;28;20030;-39
2023/08/27 00:47:51;;;;;;;4.65;3.47;;;16.20;99.90;;;;;;4999503;28;20030;-40
2023/08/27 00:50:17;;;;;;;5.07;3.65;;;16.20;99.90;;;;;;5002749;28;20096;-40
2023/08/27 00:52:43;;;;;;;3.63;2.90;;;16.30;99.90;;;;;;5000317;28;20038;-35
2023/08/27 00:55:09;;;;;;;4.55;3.40;;;16.30;99.90;;;;;;4999047;28;20038;-41
2023/08/27 00:57:38;;;;;;;4.55;3.38;;;16.30;99.90;;;;;;4998423;28;20064;-39
2023/08/27 01:00:09;;;;;;;4.95;3.63;;;16.30;99.90;;;;;;5001229;28;20053;-36
2023/08/27 01:02:35;;;;;;;3.92;3.10;;;16.30;99.90;;;;;;5000689;28;20440;-37
2023/08/27 01:05:00;;;;;;;3.78;3.35;;;16.30;99.90;;;;;;5001249;28;20030;-38
2023/08/27 01:07:53;;;;;;;5.35;3.53;;;16.30;99.90;;;;;;4998990;28;20022;-38
2023/08/27 01:10:37;;;;;;;4.78;3.95;;;16.20;99.90;;;;;;4998987;28;20033;-39
2023/08/27 01:13:14;;;;;;;6.78;3.95;;;16.10;99.90;;;;;;4996055;28;20109;-36
2023/08/27 01:15:40;;;;;;;4.40;3.67;;;16.10;99.90;;;;;;5000142;28;20504;-40
2023/08/27 01:18:07;;;;;;;5.57;3.97;;;16.20;99.90;;;;;;4998145;28;20034;-38
2023/08/27 01:20:33;;;;;;;5.80;3.90;;;16.20;99.90;;;;;;4998055;28;20034;-39
2023/08/27 01:22:58;;;;;;;4.22;3.53;;;16.30;99.90;;;;;;5000042;28;20096;-37
2023/08/27 01:25:32;;;;;;;6.38;3.85;;;16.30;99.90;;;;;;5001371;28;20022;-40
2023/08/27 01:28:07;;;;;;;8.07;3.97;;;16.30;99.90;;;;;;4996912;28;20025;-37
2023/08/27 01:30:55;;;;;;;4.15;3.42;;;16.30;99.90;;;;;;4994167;28;20029;-38
2023/08/27 01:33:26;;;;;;;6.72;3.80;;;16.40;99.90;;;;;;4999680;28;20105;-37
2023/08/27 01:35:52;;;;;;;6.60;4.38;;;16.40;99.90;;;;;;5000426;28;20041;-35
2023/08/27 01:38:18;;;;;;;6.68;4.63;;;16.40;99.90;;;;;;4995509;28;20038;-40
2023/08/27 01:40:44;;;;;;;5.90;4.07;;;16.40;99.90;;;;;;4997970;28;20112;-40
2023/08/27 01:43:10;;;;;;;4.97;4.28;;;16.40;99.90;;;;;;4998545;28;20107;-38
2023/08/27 01:45:35;;;;;;;7.18;3.83;;;16.40;99.90;;;;;;4997950;28;20060;-40
2023/08/27 01:48:01;;;;;;;4.60;3.97;;;16.40;99.90;;;;;;4996274;28;20034;-37
2023/08/27 01:50:26;;;;;;;5.32;3.70;;;16.40;99.90;;;;;;4996500;28;20064;-38
2023/08/27 01:52:52;;;;;;;4.47;3.78;;;16.50;99.90;;;;;;4997367;28;20108;-39
2023/08/27 01:55:18;;;;;;;5.75;4.53;;;16.50;99.90;;;;;;5000419;28;20098;-39
2023/08/27 01:57:44;;;;;;;7.40;4.07;;;16.50;99.90;;;;;;4996601;28;20026;-37
2023/08/27 02:00:11;;;;;;;5.10;3.83;;;16.50;99.90;;;;;;5000034;28;20084;-36
2023/08/27 02:02:36;;;;;;;4.50;3.78;;;16.60;99.90;;;;;;4999363;28;20030;-38
2023/08/27 02:05:06;;;;;;;6.22;3.85;;;16.60;99.90;;;;;;4993377;28;20027;-36
2023/08/27 02:07:34;;;;;;;4.72;3.60;;;16.60;99.90;;;;;;4999039;28;20029;-37
2023/08/27 02:10:00;;;;;;;5.78;3.42;;;16.60;99.90;;;;;;4998976;28;20034;-37
2023/08/27 02:12:26;;;;;;;7.55;4.50;;;16.60;99.90;;;;;;4995963;28;20045;-39
2023/08/27 02:14:52;;;;;;;6.60;4.50;;;16.60;99.90;;;;;;5001093;28;20018;-33
2023/08/27 02:17:17;;;;;;;6.30;4.40;;;16.60;99.90;;;;;;5001272;28;20030;-39
2023/08/27 02:19:43;;;;;;;5.05;4.43;;;16.60;99.90;;;;;;4997036;28;20061;-39
2023/08/27 02:22:08;;;;;;;5.65;4.10;;;16.60;99.90;;;;;;4996499;28;20045;-41
2023/08/27 02:24:34;;;;;;;6.70;4.30;;;16.50;99.90;;;;;;5000240;28;20022;-37
2023/08/27 02:26:59;;;;;;;6.65;4.03;;;16.50;99.90;;;;;;4992398;28;20471;-41
2023/08/27 02:29:25;;;;;;;5.32;3.90;;;16.60;99.90;;;;;;4996487;28;20580;-39
2023/08/27 02:31:51;;;;;;;8.18;4.32;;;16.60;99.90;;;;;;4998168;28;20045;-39
2023/08/27 02:34:17;;;;;;;5.70;4.13;;;16.60;99.90;;;;;;4996937;28;20487;-40
2023/08/27 02:36:42;;;;;;;5.18;4.28;;;16.60;99.90;;;;;;5002995;28;20041;-40
2023/08/27 02:39:08;;;;;;;6.90;4.13;;;16.50;99.90;;;;;;5003332;28;20042;-38
2023/08/27 02:41:34;;;;;;;7.18;4.50;;;16.60;99.90;;;;;;5002476;28;20034;-40
2023/08/27 02:43:59;;;;;;;4.97;3.60;;;16.60;99.90;;;;;;4995990;28;20408;-38
2023/08/27 02:46:25;;;;;;;4.97;3.95;;;16.60;99.90;;;;;;5001356;28;20187;-38
2023/08/27 02:48:50;;;;;;;7.35;3.65;;;16.70;99.90;;;;;;4998045;28;20041;-37
2023/08/27 02:51:16;;;;;;;6.55;4.30;;;16.70;99.90;;;;;;4998252;28;20034;-38
2023/08/27 02:53:41;;;;;;;6.60;3.80;;;16.70;99.90;;;;;;4996240;28;20074;-37
2023/08/27 02:56:08;;;;;;;6.18;3.78;;;16.60;99.90;;;;;;4996935;28;20034;-39
2023/08/27 02:58:33;;;;;;;6.25;4.05;;;16.60;99.90;;;;;;4999638;28;20080;-38
2023/08/27 03:00:59;;;;;;;5.55;3.60;;;16.70;99.90;;;;;;5001210;28;20428;-38
2023/08/27 03:03:24;;;;;;;4.43;3.47;;;16.70;99.90;;;;;;4998648;28;20038;-36
2023/08/27 03:05:50;;;;;;;7.07;3.72;;;16.70;99.90;;;;;;5000878;28;20660;-41
2023/08/27 03:08:16;;;;;;;4.22;3.47;;;16.70;99.90;;;;;;4995393;28;20030;-36
2023/08/27 03:10:42;;;;;;;5.65;4.07;;;16.70;99.90;;;;;;5000620;28;20081;-39
2023/08/27 03:13:08;;;;;;;5.10;4.10;;;16.70;99.90;;;;;;5000266;28;20121;-39
2023/08/27 03:15:33;;;;;;;5.80;3.70;;;16.60;99.90;;;;;;4996491;28;20113;-39
2023/08/27 03:17:59;;;;;;;6.47;4.10;;;16.60;99.90;;;;;;4993500;28;20397;-39
2023/08/27 03:20:25;;;;;;;4.78;3.78;;;16.70;99.90;;;;;;4993459;28;20030;-35
2023/08/27 03:22:50;;;;;;;4.82;3.50;;;16.70;99.90;;;;;;4998633;28;20046;-32
2023/08/27 03:25:16;;;;;;;5.65;4.00;;;16.70;99.90;;;;;;4999834;28;20562;-35
2023/08/27 03:27:42;;;;;;;5.72;3.72;;;16.70;99.90;;;;;;4999506;28;20112;-31
2023/08/27 03:30:08;;;;;;;6.05;4.10;;;16.70;99.90;;;;;;5002846;28;20022;-32
2023/08/27 03:32:33;;;;;;;4.85;3.90;;;16.70;99.90;;;;;;4995286;28;20042;-34
2023/08/27 03:34:59;;;;;;;4.35;3.45;;;16.70;99.90;;;;;;5000841;28;20031;-34
2023/08/27 03:37:24;;;;;;;4.03;3.65;;;16.70;99.90;;;;;;5001077;28;20129;-33
2023/08/27 03:39:50;;;;;;;4.97;3.45;;;16.70;99.90;;;;;;4996485;28;20476;-32
2023/08/27 03:42:16;;;;;;;4.03;3.20;;;16.70;99.90;;;;;;4998079;28;20037;-37
2023/08/27 03:44:41;;;;;;;3.75;3.38;;;16.70;99.90;;;;;;4998558;28;20030;-34
2023/08/27 03:47:07;;;;;;;4.10;3.30;;;16.70;99.90;;;;;;5001212;28;20040;-32
2023/08/27 03:49:32;;;;;;;5.40;3.35;;;16.60;99.90;;;;;;5000852;28;20028;-32
2023/08/27 03:51:58;;;;;;;3.67;3.13;;;16.60;99.90;;;;;;4999496;28;20029;-35
2023/08/27 03:54:23;;;;;;;3.50;3.15;;;16.70;99.90;;;;;;5001542;28;20088;-31
2023/08/27 03:56:49;;;;;;;5.03;3.38;;;16.60;99.90;;;;;;5001782;28;20029;-32
2023/08/27 03:59:15;;;;;;;4.72;3.58;;;16.60;99.90;;;;;;5001725;28;20038;-34
2023/08/27 04:01:41;;;;;;;3.90;3.50;;;16.60;99.90;;;;;;5001608;28;20033;-33
2023/08/27 04:04:06;;;;;;;5.75;3.50;;;16.60;99.90;;;;;;5003309;28;20060;-31
2023/08/27 04:06:32;;;;;;;4.55;3.70;;;16.60;99.90;;;;;;5000531;28;20129;-31
2023/08/27 04:08:58;;;;;;;4.32;3.38;;;16.60;99.90;;;;;;5000186;28;20033;-34
2023/08/27 04:11:23;;;;;;;4.10;3.50;;;16.50;99.90;;;;;;5002964;28;20030;-35
2023/08/27 04:13:49;;;;;;;3.97;3.38;;;16.50;99.90;;;;;;5001194;28;20061;-33
2023/08/27 04:16:15;;;;;;;4.47;3.45;;;16.50;99.90;;;;;;5000225;28;20037;-33
2023/08/27 04:18:41;;;;;;;4.68;3.60;;;16.50;99.90;;;;;;5001988;28;20041;-32
2023/08/27 04:21:07;;;;;;;5.20;3.63;;;16.50;99.90;;;;;;4996849;28;21619;-33
2023/08/27 04:23:33;;;;;;;4.10;3.25;;;16.60;99.90;;;;;;4995515;28;20030;-33
2023/08/27 04:25:58;;;;;;;5.10;3.70;;;16.60;99.90;;;;;;5001930;28;20388;-32
2023/08/27 04:28:24;;;;;;;3.92;3.50;;;16.50;99.90;;;;;;4999711;28;20037;-33
2023/08/27 04:30:50;;;;;;;3.65;3.17;;;16.50;99.90;;;;;;4997148;28;20496;-37
2023/08/27 04:33:17;;;;;;;4.25;3.63;;;16.50;99.90;;;;;;4995465;28;20038;-35
2023/08/27 04:35:44;;;;;;;4.75;3.30;;;16.60;99.90;;;;;;4996359;28;20026;-37
2023/08/27 04:38:10;;;;;;;4.82;3.70;;;16.50;99.90;;;;;;4994101;28;20061;-38
2023/08/27 04:40:36;;;;;;;4.00;3.60;;;16.50;99.90;;;;;;4996342;28;20029;-39
2023/08/27 04:43:02;;;;;;;4.75;3.67;;;16.50;99.90;;;;;;4994810;28;20673;-39
2023/08/27 04:45:27;;;;;;;5.18;3.53;;;16.60;99.90;;;;;;5000303;28;20525;-36
2023/08/27 04:47:54;;;;;;;4.72;3.50;;;16.50;99.90;;;;;;4995828;28;20061;-38
2023/08/27 04:50:19;;;;;;;5.25;3.80;;;16.50;99.90;;;;;;4991937;28;20037;-40
2023/08/27 04:52:45;;;;;;;5.20;3.80;;;16.50;99.90;;;;;;4994842;28;20029;-38
2023/08/27 04:55:11;;;;;;;4.50;3.65;;;16.50;99.90;;;;;;4995139;28;20310;-37
2023/08/27 04:57:37;;;;;;;4.97;4.00;;;16.60;99.90;;;;;;4996323;28;20805;-40
2023/08/27 05:00:04;;;;;;;4.35;3.92;;;16.50;99.90;;;;;;4995441;28;20672;-39
2023/08/27 05:02:30;;;;;;;4.90;4.30;;;16.60;99.90;;;;;;4995915;28;20042;-39
2023/08/27 05:04:55;;;;;;;6.03;3.92;;;16.60;99.90;;;;;;4999375;28;20205;-40
2023/08/27 05:07:21;;;;;;;5.15;3.92;;;16.60;99.90;;;;;;4992920;28;20061;-40
2023/08/27 05:09:46;;;;;;;4.15;3.75;;;16.50;99.90;;;;;;5000829;28;20033;-38
2023/08/27 05:12:12;;;;;;;5.68;4.00;;;16.50;99.90;;;;;;4997701;28;20106;-40
2023/08/27 05:14:38;;;;;;;4.82;3.80;;;16.50;99.90;;;;;;4997173;28;20503;-38
2023/08/27 05:17:03;;;;;;;4.70;4.30;;;16.50;99.90;;;;;;5001113;28;20042;-40
2023/08/27 05:19:29;;;;;;;5.45;3.90;;;16.50;99.90;;;;;;4996327;28;20044;-40
2023/08/27 05:21:55;;;;;;;5.43;4.15;;;16.50;99.90;;;;;;4998254;28;20037;-38
2023/08/27 05:24:20;;;;;;;5.65;4.57;;;16.50;99.90;;;;;;4995018;28;20109;-40
2023/08/27 05:26:46;;;;;;;5.47;4.43;;;16.50;99.90;;;;;;4999250;28;20029;-36
2023/08/27 05:29:12;;;;;;;5.65;4.25;;;16.50;99.90;;;;;;4996507;28;20065;-39
2023/08/27 05:31:37;;;;;;;6.53;4.60;;;16.60;99.90;;;;;;4997307;28;21245;-39
2023/08/27 05:34:03;;;;;;;5.97;4.45;;;16.60;99.90;;;;;;4997279;28;20482;-37
2023/08/27 05:36:29;;;;;;;5.47;4.55;;;16.60;99.90;;;;;;4996240;28;20084;-35
2023/08/27 05:38:54;;;;;;;4.85;4.30;;;16.60;99.90;;;;;;4996614;28;20033;-39
2023/08/27 05:41:20;;;;;;;6.60;4.50;;;16.60;99.90;;;;;;4995382;28;20031;-39
2023/08/27 05:43:47;;;;;;;5.20;4.70;;;16.70;99.90;;;;;;4995369;28;20026;-37
2023/08/27 05:46:13;;;;;;;7.10;4.60;;;16.70;99.90;;;;;;4994419;28;20041;-36
2023/08/27 05:48:38;;;;;;;7.68;4.82;;;16.70;99.90;;;;;;4996265;28;20025;-37
2023/08/27 05:51:04;;;;;;;6.63;4.63;;;16.70;99.90;;;;;;4997784;28;20112;-41
2023/08/27 05:53:30;;;;;;;5.93;4.85;;;16.70;99.90;;;;;;4995836;28;20030;-39
2023/08/27 05:55:55;;;;;;;5.78;4.50;;;16.70;99.90;;;;;;4998513;28;20061;-40
2023/08/27 05:58:21;;;;;;;5.82;4.10;;;16.70;99.90;;;;;;4996326;28;20423;-39
2023/08/27 06:00:50;;;;;;;5.45;4.38;;;16.70;99.90;;;;;;4993459;28;20037;-39
2023/08/27 06:03:16;;;;;;;6.82;4.25;;;16.70;99.90;;;;;;4992814;28;20032;-39
2023/08/27 06:05:41;;;;;;;5.45;4.32;;;16.70;99.90;;;;;;4999630;28;20026;-40
2023/08/27 06:08:07;;;;;;;5.25;4.40;;;16.70;99.90;;;;;;4998986;28;20022;-37
2023/08/27 06:10:34;;;;;;;7.70;4.55;;;16.80;99.90;;;;;;5001754;28;20026;-36
2023/08/27 06:13:00;;;;;;;6.88;5.20;;;16.80;99.90;;;;;;5000690;28;20037;-39
2023/08/27 06:15:29;;;;;;;5.72;4.35;;;16.80;99.90;;;;;;4997130;28;20038;-40
2023/08/27 06:17:54;;;;;;;5.72;4.50;;;16.80;99.90;;;;;;5003084;28;20648;-39
2023/08/27 06:20:20;;;;;;;5.63;4.43;;;16.80;99.90;;;;;;5003963;28;20114;-37
2023/08/27 06:22:46;;;;;;;5.13;3.78;;;16.90;99.90;;;;;;5001231;28;20025;-38
2023/08/27 06:25:11;;;;;;;5.85;4.32;;;16.90;99.90;;;;;;5000844;28;20036;-40
2023/08/27 06:27:38;;;;;;;5.25;4.18;;;16.90;99.90;;;;;;5004795;28;20125;-40
2023/08/27 06:30:04;;;;;;;5.30;4.00;;;16.90;99.90;;;;;;5001350;28;20036;-39
2023/08/27 06:32:30;;;;;;;5.80;4.22;;;16.90;99.90;;;;;;4998020;28;20026;-40
2023/08/27 06:34:56;;;;;;;5.95;3.90;;;17.00;99.90;;;;;;5001819;28;20026;-37
2023/08/27 06:37:22;;;;;;;5.43;3.80;;;16.90;99.90;;;;;;4999490;28;20502;-37
2023/08/27 06:39:49;;;;;;;3.95;3.47;;;16.80;99.90;;;;;;5002084;28;20044;-37
2023/08/27 06:42:15;;;;;;;4.25;3.63;;;16.90;99.90;;;;;;4995834;28;20030;-39
2023/08/27 06:44:41;;;;;;;7.15;3.50;;;16.90;99.90;;;;;;4998514;28;20050;-39
2023/08/27 06:47:06;;;;;;;4.18;3.13;;;16.90;99.90;;;;;;5000161;28;20124;-40
2023/08/27 06:49:32;;;;;;;4.68;3.58;;;16.90;99.90;;;;;;5004155;28;20021;-37
2023/08/27 06:51:57;;;;;;;4.18;3.30;;;16.90;99.90;;;;;;4997875;28;20022;-40
2023/08/27 06:54:23;;;;;;;5.38;2.90;;;16.90;99.90;;;;;;4997585;28;20042;-37
2023/08/27 06:56:49;;;;;;;4.63;2.97;;;17.00;99.90;;;;;;5001421;28;20794;-40
2023/08/27 06:59:15;;;;;;;3.03;2.70;;;17.00;99.90;;;;;;4998021;28;20030;-37
2023/08/27 07:01:40;;;;;;;3.53;2.85;;;17.00;99.90;;;;;;4999274;28;20096;-38
2023/08/27 07:04:06;;;;;;;3.33;3.03;;;17.00;99.90;;;;;;5001872;28;20022;-37
2023/08/27 07:06:31;;;;;;;3.90;2.92;;;17.00;99.90;;;;;;5003316;28;20087;-40
2023/08/27 07:08:57;;;;;;;3.50;3.20;;;17.00;99.90;;;;;;4999076;28;20034;-39
2023/08/27 07:11:23;;;;;;;4.50;2.65;;;17.00;99.90;;;;;;4997732;28;20144;-38
2023/08/27 07:13:51;;;;;;;3.10;2.90;;;17.00;99.90;;;;;;4992984;28;20045;-35
2023/08/27 07:16:17;;;;;;;3.80;3.22;;;17.00;99.90;;;;;;4998193;28;20030;-38
2023/08/27 07:18:43;;;;;;;4.00;3.10;;;17.10;99.90;;;;;;5001035;28;20124;-36
2023/08/27 07:21:09;;;;;;;3.42;2.97;;;17.10;99.90;;;;;;4997524;28;20065;-37
2023/08/27 07:23:35;;;;;;;3.10;2.80;;;17.10;99.90;;;;;;4997655;28;20076;-37
2023/08/27 07:26:01;;;;;;;3.17;2.88;;;17.10;99.90;;;;;;4996658;28;20030;-37
2023/08/27 07:28:26;;;;;;;3.70;2.90;;;17.10;99.90;;;;;;4996849;28;20026;-40
2023/08/27 07:30:52;;;;;;;3.10;2.80;;;17.10;99.90;;;;;;4999997;28;20053;-37
2023/08/27 07:33:18;;;;;;;3.65;3.00;;;17.10;99.90;;;;;;4999184;28;20037;-40
2023/08/27 07:35:43;;;;;;;3.92;3.17;;;17.10;99.90;;;;;;4995859;28;20099;-39
2023/08/27 07:38:09;;;;;;;3.05;2.72;;;17.10;99.90;;;;;;4994323;28;20054;-39
2023/08/27 07:40:36;;;;;;;3.13;2.83;;;17.10;99.90;;;;;;4998048;28;20081;-35
2023/08/27 07:43:03;;;;;;;3.50;3.20;;;17.20;99.90;;;;;;4999802;28;20072;-39
2023/08/27 07:45:28;;;;;;;3.05;2.72;;;17.20;99.90;;;;;;5003292;28;20029;-37
2023/08/27 07:47:54;;;;;;;3.10;2.80;;;17.30;99.90;;;;;;4998310;28;20029;-38
2023/08/27 07:50:19;;;;;;;3.40;3.10;;;17.30;99.90;;;;;;5002244;28;20084;-38
2023/08/27 07:52:45;;;;;;;3.78;3.03;;;17.30;99.90;;;;;;4997279;28;20566;-35
2023/08/27 07:55:10;;;;;;;4.68;2.85;;;17.40;99.90;;;;;;4999179;28;20120;-38
2023/08/27 07:57:36;;;;;;;3.70;2.88;;;17.40;99.90;;;;;;4993269;28;20030;-39
2023/08/27 08:00:03;;;;;;;3.70;2.50;;;17.40;99.90;;;;;;4994328;28;20479;-36
2023/08/27 08:02:28;;;;;;;2.92;2.53;;;17.40;99.90;;;;;;4999915;28;20060;-31
2023/08/27 08:04:54;;;;;;;2.90;2.60;;;17.50;99.90;;;;;;4995773;28;20396;-33
2023/08/27 08:07:20;;;;;;;2.35;2.15;;;17.40;99.90;;;;;;4999661;28;20076;-31
2023/08/27 08:09:45;;;;;;;2.85;2.25;;;17.50;99.90;;;;;;5000861;28;20438;-33
2023/08/27 08:12:11;;;;;;;2.83;2.03;;;17.50;99.90;;;;;;5002029;28;20108;-34
2023/08/27 08:14:36;;;;;;;2.88;2.17;;;17.50;99.90;;;;;;4997840;28;20038;-31
2023/08/27 08:17:02;;;;;;;2.22;1.77;;;17.50;99.90;;;;;;4996648;28;20129;-32
2023/08/27 08:19:28;;;;;;;1.92;1.60;;;17.50;99.90;;;;;;5000361;28;20057;-31
2023/08/27 08:21:53;;;;;;;1.80;1.50;;;17.40;99.90;;;;;;5000963;28;20030;-34
2023/08/27 08:24:19;;;;;;;2.05;1.65;;;17.30;99.90;;;;;;4998061;28;20955;-33
2023/08/27 08:26:44;;;;;;;1.80;1.40;;;17.30;99.90;;;;;;4993960;28;20602;-36
2023/08/27 08:29:10;;;;;;;1.65;1.52;;;17.30;99.90;;;;;;4995787;28;20037;-34
2023/08/27 08:31:36;;;;;;;2.22;1.40;;;17.30;99.90;;;;;;4999141;28;20121;-33
2023/08/27 08:34:01;;;;;;;3.50;1.50;;;17.40;99.90;;;;;;4997734;28;20030;-31
2023/08/27 08:36:27;;;;;;;1.70;1.50;;;17.40;99.90;;;;;;5001584;28;20498;-31
2023/08/27 08:38:52;;;;;;;1.88;1.45;;;17.40;99.90;;;;;;4996063;28;20458;-34
2023/08/27 08:41:20;;;;;;;3.05;1.50;;;17.40;99.90;;;;;;4997375;28;20026;-33
2023/08/27 08:43:56;;;;;;;1.98;1.65;;;17.30;99.90;;;;;;4995761;28;20136;-31
2023/08/27 08:46:23;;;;;;;2.30;1.63;;;17.30;99.90;;;;;;5000279;28;20033;-33
2023/08/27 08:48:51;;;;;;;1.77;1.67;;;17.30;99.90;;;;;;4996841;28;20038;-31
2023/08/27 08:51:25;;;;;;;1.60;1.42;;;17.20;99.90;;;;;;4997109;28;20027;-33
2023/08/27 08:53:54;;;;;;;2.97;1.77;;;17.20;99.90;;;;;;4994924;28;20570;-35
2023/08/27 08:56:28;;;;;;;1.52;1.30;;;17.30;99.90;;;;;;4993981;28;20073;-30
2023/08/27 08:58:58;;;;;;;1.48;1.20;;;17.20;99.90;;;;;;4995372;28;20029;-33
2023/08/27 09:01:24;;;;;;;1.80;1.33;;;17.20;99.90;;;;;;4992242;28;20073;-30
2023/08/27 09:03:51;;;;;;;1.30;1.20;;;17.20;99.90;;;;;;4999349;28;20037;-32
2023/08/27 09:06:18;;;;;;;1.92;1.35;;;17.20;99.90;;;;;;4996731;28;20496;-32
2023/08/27 09:08:45;;;;;;;1.83;1.42;;;17.10;99.90;;;;;;4997909;28;20068;-30
2023/08/27 09:11:12;;;;;;;1.40;1.30;;;17.00;99.90;;;;;;5001995;28;20026;-35
2023/08/27 09:13:39;;;;;;;1.73;1.40;;;17.00;99.90;;;;;;4998728;28;20055;-39
2023/08/27 09:16:09;;;;;;;1.77;1.40;;;17.00;99.90;;;;;;4999665;28;20108;-38
2023/08/27 09:18:35;;;;;;;1.40;1.25;;;17.00;99.90;;;;;;4998033;28;20976;-38
2023/08/27 09:21:01;;;;;;;1.58;1.40;;;17.00;99.90;;;;;;4998534;28;20038;-38
2023/08/27 09:23:28;;;;;;;1.40;1.30;;;17.10;99.90;;;;;;4999638;28;20510;-40
2023/08/27 09:25:58;;;;;;;1.88;1.58;;;17.10;99.90;;;;;;4991006;28;20721;-40
2023/08/27 09:28:24;;;;;;;2.75;1.20;;;17.20;99.90;;;;;;4993416;28;20057;-39
2023/08/27 09:30:51;;;;;;;1.52;1.20;;;17.30;99.90;;;;;;4996275;28;20490;-36
2023/08/27 09:33:17;;;;;;;2.13;1.33;;;17.20;99.90;;;;;;4995826;28;20472;-40
2023/08/27 09:35:43;;;;;;;2.55;1.67;;;17.30;99.90;;;;;;4996901;28;20036;-39
2023/08/27 09:38:14;;;;;;;2.20;1.50;;;17.20;99.90;;;;;;4995298;28;20050;-38
2023/08/27 09:40:40;;;;;;;1.58;1.33;;;17.30;99.90;;;;;;4994071;28;20489;-38
2023/08/27 09:43:08;;;;;;;2.53;1.60;;;17.30;99.90;;;;;;4995459;28;20030;-39
2023/08/27 09:45:34;;;;;;;2.25;1.70;;;17.20;99.90;;;;;;4992246;28;20026;-38
2023/08/27 09:48:01;;;;;;;1.35;1.25;;;17.10;99.90;;;;;;4997234;28;20069;-40
2023/08/27 09:50:28;;;;;;;1.73;1.45;;;17.10;99.90;;;;;;4998256;28;20541;-36
2023/08/27 09:53:10;;;;;;;2.05;1.60;;;17.00;99.90;;;;;;4995887;28;20088;-38
2023/08/27 09:55:36;;;;;;;1.63;1.52;;;17.10;99.90;;;;;;5000396;28;20046;-40
2023/08/27 09:58:04;;;;;;;1.80;1.50;;;17.10;99.90;;;;;;4993385;28;20034;-37
2023/08/27 10:00:30;;;;;;;2.13;1.77;;;17.20;99.90;;;;;;4995041;28;20030;-38
2023/08/27 10:02:56;;;;;;;1.42;1.33;;;17.30;99.90;;;;;;4999271;28;20038;-40
2023/08/27 10:05:28;;;;;;;1.90;1.40;;;17.30;99.90;;;;;;4993098;28;20112;-40
2023/08/27 10:08:04;;;;;;;1.40;1.30;;;17.30;99.90;;;;;;4998835;28;20076;-34
2023/08/27 10:10:33;;;;;;;3.17;1.58;;;17.40;99.90;;;;;;4994036;28;20081;-35
2023/08/27 10:12:59;;;;;;;1.50;1.40;;;17.10;99.90;;;;;;4992985;28;20125;-35
2023/08/27 10:15:27;;;;;;;2.47;1.40;;;17.10;99.90;;;;;;4998783;28;20041;-41
2023/08/27 10:17:53;;;;;;;2.97;1.60;;;17.10;99.90;;;;;;4995807;28;20120;-38
2023/08/27 10:20:19;;;;;;;2.45;1.48;;;17.10;99.90;;;;;;4995787;28;20069;-39
2023/08/27 10:22:45;;;;;;;2.22;1.70;;;17.10;99.90;;;;;;4996051;28;20030;-34
2023/08/27 10:25:19;;;;;;;2.03;1.38;;;17.10;99.90;;;;;;4995492;28;20030;-35
2023/08/27 10:27:47;;;;;;;1.60;1.50;;;17.10;99.90;;;;;;4995982;28;20280;-32
2023/08/27 10:30:15;;;;;;;2.08;1.70;;;17.10;99.90;;;;;;4999729;28;20026;-34
2023/08/27 10:32:41;;;;;;;2.08;1.80;;;17.10;99.90;;;;;;4996510;28;20084;-35
2023/08/27 10:35:09;;;;;;;2.92;1.60;;;17.10;99.90;;;;;;4993592;28;20030;-37
2023/08/27 10:37:42;;;;;;;2.58;1.55;;;17.20;99.90;;;;;;5000626;28;20038;-32
2023/08/27 10:40:11;;;;;;;1.58;1.48;;;17.20;99.90;;;;;;4995216;28;20034;-32
2023/08/27 10:42:37;;;;;;;2.30;1.67;;;17.10;99.90;;;;;;5001390;28;20030;-31
2023/08/27 10:45:11;;;;;;;1.65;1.50;;;17.10;99.90;;;;;;5001372;28;20025;-34
2023/08/27 10:47:37;;;;;;;1.65;1.45;;;17.00;99.90;;;;;;4993290;28;20476;-36
2023/08/27 10:50:04;;;;;;;2.63;1.67;;;17.10;99.90;;;;;;4998387;28;20033;-33
2023/08/27 10:52:48;;;;;;;2.70;1.20;;;17.10;99.90;;;;;;4999157;28;20040;-32
2023/08/27 10:55:14;;;;;;;1.85;1.75;;;17.20;99.90;;;;;;4999904;28;20030;-35
2023/08/27 10:57:39;;;;;;;1.60;1.30;;;17.20;99.90;;;;;;5004499;28;20108;-34
2023/08/27 11:00:12;;;;;;;1.67;1.50;;;17.20;99.90;;;;;;4998695;28;20024;-32
2023/08/27 11:03:13;;;;;;;3.83;1.80;;;17.10;99.90;;;;;;4993158;28;20037;-31
2023/08/27 11:05:38;;;;;;;2.15;1.30;;;17.10;99.90;;;;;;4999297;28;20023;-31
2023/08/27 11:08:15;;;;;;;2.25;1.73;;;17.00;99.90;;;;;;4999891;28;20061;-33
2023/08/27 11:10:40;;;;;;;1.40;1.30;;;17.00;99.90;;;;;;5000699;28;20079;-32
2023/08/27 11:13:06;;;;;;;2.35;1.83;;;17.00;99.90;;;;;;5000870;28;20638;-33
2023/08/27 11:15:32;;;;;;;2.30;1.48;;;17.00;99.90;;;;;;5001237;28;20030;-31
2023/08/27 11:17:59;;;;;;;2.92;1.50;;;17.10;99.90;;;;;;5002555;28;20040;-33
2023/08/27 11:20:27;;;;;;;2.22;1.40;;;17.00;99.90;;;;;;5001987;28;20026;-35
2023/08/27 11:22:58;;;;;;;1.45;1.35;;;17.00;99.90;;;;;;5000344;28;20038;-32
2023/08/27 11:25:29;;;;;;;2.80;1.52;;;17.00;99.90;;;;;;4998474;28;20022;-31
2023/08/27 11:27:56;;;;;;;1.20;1.08;;;17.00;99.90;;;;;;5002430;28;20087;-35
2023/08/27 11:30:25;;;;;;;1.30;1.20;;;17.00;99.90;;;;;;4999633;28;20044;-34
2023/08/27 11:32:53;;;;;;;1.38;1.25;;;16.90;99.90;;;;;;5001024;28;20033;-37
2023/08/27 11:35:23;;;;;;;2.00;1.27;;;16.90;99.90;;;;;;4997472;28;20034;-38
2023/08/27 11:37:49;;;;;;;1.45;1.08;;;16.90;99.90;;;;;;5001185;28;20049;-38
2023/08/27 11:40:15;;;;;;;1.27;1.17;;;16.90;99.90;;;;;;4995006;28;20095;-41
2023/08/27 11:42:54;;;;;;;2.10;1.23;;;17.00;99.90;;;;;;4998168;28;20026;-39
2023/08/27 11:45:30;;;;;;;1.58;1.13;;;16.90;99.90;;;;;;4995755;28;20034;-39
2023/08/27 11:47:57;;;;;;;1.60;1.10;;;16.90;99.90;;;;;;4999727;28;20518;-40
2023/08/27 11:50:23;;;;;;;1.40;1.30;;;16.90;99.90;;;;;;4998169;28;20029;-40
2023/08/27 11:52:49;;;;;;;1.65;1.30;;;17.00;99.90;;;;;;5003363;28;20419;-38
2023/08/27 11:55:20;;;;;;;1.10;1.00;;;16.90;99.90;;;;;;4992229;28;20026;-37
2023/08/27 11:57:46;;;;;;;1.20;1.17;;;16.90;99.90;;;;;;4998163;28;20030;-38
2023/08/27 12:00:12;;;;;;;1.73;1.17;;;16.90;99.90;;;;;;4999123;28;20368;-35
2023/08/27 12:02:39;;;;;;;1.42;1.30;;;16.90;99.90;;;;;;4996213;28;20119;-38
2023/08/27 12:05:08;;;;;;;2.63;1.50;;;17.00;99.90;;;;;;4998191;28;20038;-38
2023/08/27 12:07:35;;;;;;;1.98;1.42;;;17.00;99.90;;;;;;4998827;28;20169;-38
2023/08/27 12:10:09;;;;;;;1.55;1.38;;;17.00;99.90;;;;;;4997498;28;20042;-39
2023/08/27 12:12:42;;;;;;;2.53;1.48;;;17.00;99.90;;;;;;4997247;28;20030;-37
2023/08/27 12:15:08;;;;;;;2.08;1.40;;;16.90;99.90;;;;;;5002915;28;20030;-41
2023/08/27 12:17:35;;;;;;;2.30;1.23;;;16.90;99.90;;;;;;4995908;28;20033;-38
2023/08/27 12:20:05;;;;;;;1.45;1.30;;;16.90;99.90;;;;;;4990184;28;20038;-41
2023/08/27 12:22:40;;;;;;;2.58;1.30;;;16.90;99.90;;;;;;4994009;28;20593;-39
2023/08/27 12:25:06;;;;;;;1.65;1.27;;;17.00;99.90;;;;;;4995720;28;20100;-38
2023/08/27 12:27:32;;;;;;;1.40;1.30;;;17.00;99.90;;;;;;4996088;28;20100;-38
2023/08/27 12:29:58;;;;;;;1.25;1.15;;;17.10;99.90;;;;;;4998824;28;20034;-35
2023/08/27 12:32:30;;;;;;;2.25;1.30;;;17.10;99.90;;;;;;4994477;28;20419;-37
2023/08/27 12:34:55;;;;;;;1.38;1.27;;;17.10;99.90;;;;;;4997181;28;20038;-39
2023/08/27 12:37:27;;;;;;;1.50;1.40;;;17.10;99.90;;;;;;4999650;28;20037;-40
2023/08/27 12:39:53;;;;;;;2.35;1.33;;;17.10;99.90;;;;;;4997936;28;20738;-37
2023/08/27 12:42:22;;;;;;;1.27;1.17;;;17.10;99.90;;;;;;4995093;28;20113;-37
2023/08/27 12:44:47;;;;;;;2.60;1.20;;;17.00;99.90;;;;;;4999811;28;20058;-37
2023/08/27 12:47:13;;;;;;;2.05;1.30;;;17.00;99.90;;;;;;5000268;28;20072;-38